ケルン/ボン の空港の天気 - METARとTAF

ケルン・ボン空港 ( EDDK / CGN ) - ドイツ ケルン/ボン
飛行場実況気象(Metar)
観測時間07/18 14:20 CEST (07/18 12:20 UTC)
風向・風速不定 2m/s
視程10km以上
天気現象
なし
気温26℃
湿度37%
気圧1011hPa
METAREDDK 181220Z VRB04KT CAVOK 26/10 Q1011 NOSIG
過去の天気等 Google飛行場航空写真 Wunderground天気予報

過去48時間のMETAR

飛行場予報(TAF)
発表時間: 7/18 13:00 CEST (7/18 11:00 UTC)
予報対象時間: 18日14時 CEST ~ 19日20時 CEST
風向・風速西南西 3m/s
視程10km以上
なし
18日19時 CEST ~ 18日21時 CEST に 確率 30% で一時的に
風向・風速北西 5m/s
天気現象しゅう雨
全天の4割程度の積乱雲 雲底高度 1220m
18日21時 CEST ~ 18日24時 CEST に徐々に
風向・風速南南東 2m/s
19日8時 CEST ~ 19日11時 CEST に徐々に
風向・風速西 3m/s
TAF EDDK 181100Z 1812/1918 25006KT CAVOK
PROB30 TEMPO 1817/1819 31010KT SHRA SCT040CB
BECMG 1819/1822 16003KT
BECMG 1906/1909 26006KT